createdAt,value
2022-09-02T00:02:14.344Z,13.40
2022-09-02T00:05:36.471Z,13.40
2022-09-02T00:08:58.360Z,13.40
2022-09-02T00:12:21.281Z,13.30
2022-09-02T00:15:43.115Z,13.30
2022-09-02T00:19:05.053Z,13.20
2022-09-02T00:22:26.671Z,13.20
2022-09-02T00:25:48.404Z,13.20
2022-09-02T00:29:11.403Z,13.20
2022-09-02T00:32:33.171Z,13.30
2022-09-02T00:35:54.776Z,13.40
2022-09-02T00:39:16.355Z,13.40
2022-09-02T00:42:37.936Z,13.50
2022-09-02T00:46:00.926Z,13.50
2022-09-02T00:49:23.887Z,13.50
2022-09-02T00:52:47.544Z,13.50
2022-09-02T00:56:11.376Z,13.50
2022-09-02T00:59:38.017Z,13.40
2022-09-02T01:03:02.368Z,13.40
2022-09-02T01:06:25.212Z,13.40
2022-09-02T01:09:46.868Z,13.40
2022-09-02T01:13:10.916Z,13.30
2022-09-02T01:16:35.787Z,13.30
2022-09-02T01:20:00.976Z,13.20
2022-09-02T01:23:23.951Z,13.10
2022-09-02T01:26:47.221Z,13.00
2022-09-02T01:30:10.310Z,12.90
2022-09-02T01:33:31.901Z,12.90
2022-09-02T01:36:53.510Z,12.80
2022-09-02T01:40:17.410Z,12.80
2022-09-02T01:43:39.040Z,12.80
2022-09-02T01:47:00.682Z,12.80
2022-09-02T01:50:22.366Z,12.80
2022-09-02T01:53:44.347Z,12.70
2022-09-02T01:57:07.341Z,12.70
2022-09-02T02:00:29.209Z,12.70
2022-09-02T02:03:50.838Z,12.70
2022-09-02T02:07:13.054Z,12.80
2022-09-02T02:10:34.892Z,12.90
2022-09-02T02:13:57.834Z,13.10
2022-09-02T02:17:19.434Z,13.10
2022-09-02T02:20:42.871Z,13.00
2022-09-02T02:24:06.751Z,13.00
2022-09-02T02:27:28.388Z,12.90
2022-09-02T02:30:51.360Z,12.80
2022-09-02T02:34:13.235Z,12.70
2022-09-02T02:37:34.795Z,12.50
2022-09-02T02:40:56.818Z,12.40
2022-09-02T02:44:18.473Z,12.30
2022-09-02T02:47:42.429Z,12.20
2022-09-02T02:51:04.356Z,12.20
2022-09-02T02:54:35.201Z,12.10
2022-09-02T02:57:56.956Z,12.10
2022-09-02T03:01:18.617Z,12.10
2022-09-02T03:04:41.585Z,12.00
2022-09-02T03:08:03.363Z,12.00
2022-09-02T03:11:25.048Z,12.00
2022-09-02T03:14:46.646Z,12.00
2022-09-02T03:18:08.659Z,11.90
2022-09-02T03:21:38.666Z,11.90
2022-09-02T03:25:01.063Z,11.90
2022-09-02T03:28:22.661Z,11.90
2022-09-02T03:31:44.619Z,11.80
2022-09-02T03:35:07.582Z,11.80
2022-09-02T03:38:30.527Z,11.80
2022-09-02T03:41:52.117Z,11.70
2022-09-02T03:45:13.791Z,11.70
2022-09-02T03:48:35.416Z,11.70
2022-09-02T03:51:56.996Z,11.70
2022-09-02T03:55:20.022Z,11.70
2022-09-02T03:58:41.973Z,11.60
2022-09-02T04:02:04.265Z,11.60
2022-09-02T04:05:26.111Z,11.50
2022-09-02T04:08:48.152Z,11.50
2022-09-02T04:12:11.096Z,11.40
2022-09-02T04:15:32.691Z,11.40
2022-09-02T04:18:54.550Z,11.40
2022-09-02T04:22:16.136Z,11.50
2022-09-02T04:25:39.185Z,11.50
2022-09-02T04:29:02.123Z,11.60
2022-09-02T04:32:24.430Z,11.70
2022-09-02T04:35:47.213Z,11.70
2022-09-02T04:39:08.824Z,11.80
2022-09-02T04:42:30.632Z,11.80
2022-09-02T04:45:53.592Z,11.90
2022-09-02T04:49:15.220Z,11.90
2022-09-02T04:52:36.831Z,11.90
2022-09-02T04:55:58.449Z,11.90
2022-09-02T04:59:20.020Z,11.80
2022-09-02T05:02:42.983Z,11.80
2022-09-02T05:06:06.097Z,11.70
2022-09-02T05:09:28.079Z,11.70
2022-09-02T05:12:49.681Z,11.70
2022-09-02T05:16:14.740Z,11.70
2022-09-02T05:19:37.727Z,11.70
2022-09-02T05:22:59.309Z,11.70
2022-09-02T05:26:20.910Z,11.90
2022-09-02T05:29:45.338Z,11.90
2022-09-02T05:33:07.625Z,12.10
2022-09-02T05:36:32.147Z,12.30
2022-09-02T05:39:53.836Z,12.60
2022-09-02T05:43:15.416Z,12.90
2022-09-02T05:46:37.013Z,13.30
2022-09-02T05:49:58.587Z,13.90
2022-09-02T05:53:21.602Z,14.70
2022-09-02T05:56:44.937Z,16.00
2022-09-02T06:00:07.544Z,17.80
2022-09-02T06:03:29.123Z,19.90
2022-09-02T06:06:50.768Z,21.50
2022-09-02T06:10:13.746Z,22.90
2022-09-02T06:13:36.050Z,24.10
2022-09-02T06:16:58.619Z,25.10
2022-09-02T06:20:20.178Z,26.00
2022-09-02T06:23:41.831Z,26.10
2022-09-02T06:27:04.959Z,26.50
2022-09-02T06:30:26.571Z,26.50
2022-09-02T06:33:50.944Z,26.90
2022-09-02T06:37:12.523Z,26.70
2022-09-02T06:40:34.176Z,26.60
2022-09-02T06:43:58.223Z,26.10
2022-09-02T06:47:21.620Z,26.20
2022-09-02T06:50:44.107Z,26.40
2022-09-02T06:54:06.856Z,26.60
2022-09-02T06:57:33.848Z,27.10
2022-09-02T07:00:57.255Z,27.50
2022-09-02T07:04:18.955Z,27.40
2022-09-02T07:07:41.902Z,27.20
2022-09-02T07:11:03.501Z,26.40
2022-09-02T07:14:25.603Z,26.20
2022-09-02T07:17:48.589Z,26.30
2022-09-02T07:21:10.354Z,26.50
2022-09-02T07:24:31.951Z,26.70
2022-09-02T07:27:53.551Z,26.20
2022-09-02T07:31:16.023Z,26.40
2022-09-02T07:34:39.017Z,26.90
2022-09-02T07:38:00.620Z,26.80
2022-09-02T07:41:23.158Z,27.30
2022-09-02T07:44:44.762Z,26.80
2022-09-02T07:48:06.484Z,27.30
2022-09-02T07:51:31.112Z,27.60
2022-09-02T07:54:52.871Z,27.40
2022-09-02T07:58:16.011Z,27.00
2022-09-02T08:01:38.524Z,26.70
2022-09-02T08:05:00.351Z,26.80
2022-09-02T08:08:23.302Z,26.60
2022-09-02T08:11:45.889Z,26.90
2022-09-02T08:15:08.696Z,27.30
2022-09-02T08:18:30.489Z,26.70
2022-09-02T08:21:52.095Z,26.90
2022-09-02T08:25:15.321Z,26.40
2022-09-02T08:28:36.916Z,26.90
2022-09-02T08:31:58.619Z,27.20
2022-09-02T08:35:20.320Z,26.80
2022-09-02T08:38:42.365Z,27.40
2022-09-02T08:42:08.903Z,27.50
2022-09-02T08:45:32.254Z,27.60
2022-09-02T08:48:56.759Z,27.70
2022-09-02T08:52:22.596Z,27.20
2022-09-02T08:55:45.646Z,26.80
2022-09-02T08:59:09.520Z,26.80
2022-09-02T09:02:35.863Z,27.00
2022-09-02T09:06:01.968Z,27.10
2022-09-02T09:09:27.911Z,27.00
2022-09-02T09:12:56.477Z,27.40
2022-09-02T09:16:25.642Z,27.00
2022-09-02T09:19:48.620Z,26.70
2022-09-02T09:23:21.895Z,27.10
2022-09-02T09:26:43.977Z,27.10
2022-09-02T09:30:06.203Z,27.20
2022-09-02T09:33:30.335Z,27.10
2022-09-02T09:36:52.755Z,27.60
2022-09-02T09:40:21.487Z,27.30
2022-09-02T09:43:43.224Z,26.80
2022-09-02T09:47:06.168Z,26.10
2022-09-02T09:50:29.095Z,25.90
2022-09-02T09:53:50.990Z,25.70
2022-09-02T09:57:14.768Z,25.90
2022-09-02T10:00:38.175Z,25.80
2022-09-02T10:04:02.027Z,26.10
2022-09-02T10:07:39.117Z,25.90
2022-09-02T10:11:02.340Z,25.90
2022-09-02T10:14:26.568Z,25.60
2022-09-02T10:17:56.871Z,25.40
2022-09-02T10:21:28.089Z,25.50
2022-09-02T10:25:00.149Z,25.60
2022-09-02T10:28:26.545Z,25.30
2022-09-02T10:31:51.845Z,25.20
2022-09-02T10:35:17.948Z,24.80
2022-09-02T10:38:42.050Z,24.60
2022-09-02T10:42:08.776Z,24.60
2022-09-02T10:45:33.603Z,24.20
2022-09-02T10:48:59.684Z,23.90
2022-09-02T10:52:32.204Z,23.80
2022-09-02T10:55:56.502Z,23.60
2022-09-02T10:59:21.941Z,23.20
2022-09-02T11:02:47.269Z,22.80
2022-09-02T11:06:10.968Z,22.70
2022-09-02T11:09:34.721Z,22.50
2022-09-02T11:13:00.651Z,22.40
2022-09-02T11:16:25.726Z,22.40
2022-09-02T11:19:50.048Z,22.30
2022-09-02T11:23:15.961Z,22.20
2022-09-02T11:26:39.194Z,22.30
2022-09-02T11:30:03.349Z,22.40
2022-09-02T11:33:28.283Z,22.40
2022-09-02T11:36:49.949Z,22.50
2022-09-02T11:40:33.195Z,22.40
2022-09-02T11:47:39.162Z,22.20
2022-09-02T11:51:16.847Z,22.30
2022-09-02T11:54:39.799Z,22.40
2022-09-02T11:58:01.990Z,22.40
2022-09-02T12:01:29.043Z,22.50
2022-09-02T12:05:06.895Z,22.50
2022-09-02T12:08:47.735Z,22.50
2022-09-02T12:12:30.638Z,22.50
2022-09-02T12:16:25.302Z,22.50
2022-09-02T12:19:48.581Z,22.60
2022-09-02T12:23:19.380Z,22.60
2022-09-02T12:26:58.698Z,22.50
2022-09-02T12:30:35.192Z,22.60
2022-09-02T12:33:57.327Z,22.50
2022-09-02T12:37:38.629Z,22.60
2022-09-02T12:41:24.226Z,22.60
2022-09-02T12:44:52.230Z,22.60
2022-09-02T12:48:16.886Z,22.50
2022-09-02T12:51:51.271Z,22.50
2022-09-02T12:55:16.011Z,22.40
2022-09-02T12:58:38.627Z,22.50
2022-09-02T13:02:18.745Z,22.60
2022-09-02T13:05:50.474Z,22.70
2022-09-02T13:09:31.591Z,22.70
2022-09-02T13:13:08.095Z,22.80
2022-09-02T13:16:37.298Z,22.70
2022-09-02T13:20:32.305Z,22.80
2022-09-02T13:24:23.832Z,22.80
2022-09-02T13:27:53.892Z,22.80
2022-09-02T13:31:19.451Z,22.80
2022-09-02T13:34:41.597Z,22.90
2022-09-02T13:38:03.287Z,23.00
2022-09-02T13:41:30.325Z,23.10
2022-09-02T13:45:07.927Z,23.10
2022-09-02T13:48:31.131Z,23.10
2022-09-02T13:51:53.552Z,23.10
2022-09-02T13:55:16.387Z,23.20
2022-09-02T13:58:41.276Z,23.20
2022-09-02T14:02:19.785Z,23.30
2022-09-02T14:05:47.353Z,23.30
2022-09-02T14:09:11.520Z,23.30
2022-09-02T14:12:34.098Z,23.30
2022-09-02T14:16:10.597Z,23.30
2022-09-02T14:19:33.558Z,23.30
2022-09-02T14:22:56.052Z,23.40
2022-09-02T14:26:19.769Z,23.40
2022-09-02T14:29:43.407Z,23.40
2022-09-02T14:33:18.399Z,23.30
2022-09-02T14:36:41.550Z,23.30
2022-09-02T14:40:08.071Z,23.30
2022-09-02T14:43:34.563Z,23.20
2022-09-02T14:46:58.132Z,23.20
2022-09-02T14:50:22.144Z,23.20
2022-09-02T14:53:45.088Z,23.30
2022-09-02T14:57:19.019Z,23.20
2022-09-02T15:00:40.606Z,23.20
2022-09-02T15:04:02.388Z,23.20
2022-09-02T15:07:24.850Z,23.30
2022-09-02T15:10:47.950Z,23.30
2022-09-02T15:14:09.562Z,23.30
2022-09-02T15:17:31.179Z,23.30
2022-09-02T15:20:52.773Z,23.30
2022-09-02T15:24:14.580Z,23.30
2022-09-02T15:27:37.526Z,23.30
2022-09-02T15:30:59.434Z,23.30
2022-09-02T15:34:21.051Z,23.20
2022-09-02T15:37:42.652Z,23.10
2022-09-02T15:41:14.168Z,23.10
2022-09-02T15:44:37.108Z,23.10
2022-09-02T15:47:58.731Z,23.20
2022-09-02T15:51:21.213Z,23.20
2022-09-02T15:54:42.805Z,23.10
2022-09-02T15:58:04.424Z,23.00
2022-09-02T16:01:28.932Z,22.90
2022-09-02T16:04:50.604Z,22.80
2022-09-02T16:08:12.204Z,22.80
2022-09-02T16:11:33.792Z,22.70
2022-09-02T16:14:55.380Z,22.70
2022-09-02T16:18:18.325Z,22.60
2022-09-02T16:21:39.938Z,22.60
2022-09-02T16:25:01.541Z,22.50
2022-09-02T16:28:23.150Z,22.40
2022-09-02T16:31:47.769Z,22.40
2022-09-02T16:35:20.230Z,22.30
2022-09-02T16:38:41.839Z,22.10
2022-09-02T16:42:03.988Z,22.00
2022-09-02T16:45:25.576Z,21.90
2022-09-02T16:48:47.171Z,21.90
2022-09-02T16:52:10.457Z,21.80
2022-09-02T16:55:32.123Z,21.90
2022-09-02T16:59:01.030Z,21.90
2022-09-02T17:02:24.382Z,21.80
2022-09-02T17:05:46.009Z,21.80
2022-09-02T17:09:09.130Z,21.70
2022-09-02T17:12:30.702Z,21.70
2022-09-02T17:15:52.325Z,21.60
2022-09-02T17:19:14.392Z,21.40
2022-09-02T17:22:35.976Z,21.30
2022-09-02T17:25:58.927Z,21.10
2022-09-02T17:29:47.518Z,21.00
2022-09-02T17:33:03.103Z,20.80
2022-09-02T17:36:25.218Z,20.70
2022-09-02T17:39:47.318Z,20.50
2022-09-02T17:43:10.263Z,20.40
2022-09-02T17:46:31.858Z,20.30
2022-09-02T17:49:53.443Z,20.20
2022-09-02T17:53:15.039Z,20.10
2022-09-02T17:56:46.203Z,20.00
2022-09-02T18:00:10.283Z,19.90
2022-09-02T18:03:36.463Z,19.80
2022-09-02T18:07:00.660Z,19.70
2022-09-02T18:10:22.244Z,19.60
2022-09-02T18:13:48.459Z,19.50
2022-09-02T18:17:21.622Z,19.40
2022-09-02T18:20:44.026Z,19.30
2022-09-02T18:24:10.883Z,19.30
2022-09-02T18:27:39.718Z,19.20
2022-09-02T18:31:07.480Z,19.10
2022-09-02T18:34:36.870Z,19.00
2022-09-02T18:38:02.990Z,19.00
2022-09-02T18:41:35.563Z,18.90
2022-09-02T18:45:02.144Z,18.80
2022-09-02T18:48:26.514Z,18.80
2022-09-02T18:51:52.290Z,18.70
2022-09-02T18:55:15.538Z,18.70
2022-09-02T18:58:39.136Z,18.60
2022-09-02T19:02:05.158Z,18.60
2022-09-02T19:05:27.847Z,18.60
2022-09-02T19:08:55.606Z,18.50
2022-09-02T19:12:17.408Z,18.50
2022-09-02T19:15:39.125Z,18.40
2022-09-02T19:19:00.708Z,18.40
2022-09-02T19:22:23.647Z,18.40
2022-09-02T19:25:47.282Z,18.30
2022-09-02T19:29:10.305Z,18.30
2022-09-02T19:32:33.275Z,18.20
2022-09-02T19:35:55.089Z,18.20
2022-09-02T19:39:16.754Z,18.10
2022-09-02T19:42:41.355Z,18.10
2022-09-02T19:46:03.043Z,18.10
2022-09-02T19:49:24.766Z,18.10
2022-09-02T19:52:48.397Z,18.00
2022-09-02T19:56:10.118Z,18.00
2022-09-02T19:59:37.288Z,18.00
2022-09-02T20:02:58.900Z,18.00
2022-09-02T20:06:20.503Z,18.00
2022-09-02T20:09:42.099Z,18.00
2022-09-02T20:13:04.227Z,17.90
2022-09-02T20:16:27.471Z,17.80
2022-09-02T20:19:49.830Z,17.60
2022-09-02T20:23:17.306Z,17.60
2022-09-02T20:26:44.924Z,17.50
2022-09-02T20:30:08.635Z,17.50
2022-09-02T20:33:35.247Z,17.40
2022-09-02T20:37:01.289Z,17.30
2022-09-02T20:40:32.176Z,17.30
2022-09-02T20:44:12.038Z,17.20
2022-09-02T20:47:50.293Z,17.20
2022-09-02T20:51:16.106Z,17.10
2022-09-02T20:54:39.792Z,17.10
2022-09-02T20:58:03.839Z,17.00
2022-09-02T21:01:27.034Z,17.00
2022-09-02T21:04:50.921Z,17.00
2022-09-02T21:08:17.284Z,17.00
2022-09-02T21:11:42.544Z,17.00
2022-09-02T21:15:07.158Z,16.90
2022-09-02T21:18:31.465Z,16.90
2022-09-02T21:21:54.924Z,16.80
2022-09-02T21:25:21.946Z,16.70
2022-09-02T21:28:45.387Z,16.60
2022-09-02T21:32:10.344Z,16.60
2022-09-02T21:35:40.114Z,16.60
2022-09-02T21:39:03.997Z,16.60
2022-09-02T21:42:30.309Z,16.50
2022-09-02T21:45:56.071Z,16.40
2022-09-02T21:49:25.343Z,16.30
2022-09-02T21:52:52.674Z,16.20
2022-09-02T21:56:30.529Z,16.10
2022-09-02T21:59:58.514Z,16.00
2022-09-02T22:03:23.467Z,16.00
2022-09-02T22:06:47.459Z,15.90
2022-09-02T22:10:14.281Z,15.90
2022-09-02T22:13:35.942Z,15.90
2022-09-02T22:17:02.498Z,15.90
2022-09-02T22:20:27.000Z,15.90
2022-09-02T22:23:48.581Z,15.80
2022-09-02T22:27:12.357Z,15.80
2022-09-02T22:30:35.820Z,15.90
2022-09-02T22:34:00.140Z,16.00
2022-09-02T22:37:23.818Z,16.00
2022-09-02T22:40:47.307Z,16.00
2022-09-02T22:44:11.394Z,16.00
2022-09-02T22:47:34.391Z,16.10
2022-09-02T22:50:59.173Z,16.10
2022-09-02T22:54:20.769Z,16.20
2022-09-02T22:57:47.016Z,16.20
2022-09-02T23:01:11.259Z,16.20
2022-09-02T23:04:38.217Z,16.20
2022-09-02T23:08:01.783Z,16.20
2022-09-02T23:11:27.750Z,16.20
2022-09-02T23:14:53.029Z,16.30
2022-09-02T23:18:17.915Z,16.30
2022-09-02T23:21:42.026Z,16.30
2022-09-02T23:25:12.406Z,16.30
2022-09-02T23:28:37.172Z,16.30
2022-09-02T23:32:05.221Z,16.30
2022-09-02T23:35:31.093Z,16.40
2022-09-02T23:39:00.556Z,16.40
2022-09-02T23:42:23.838Z,16.40
2022-09-02T23:45:46.112Z,16.50
2022-09-02T23:49:10.900Z,16.50
2022-09-02T23:52:36.726Z,16.50
2022-09-02T23:56:05.071Z,16.50
2022-09-02T23:59:35.578Z,16.50
